Ana Sayfa
METAR-TAF:

METAR-TAF

Havaalanları :

Huntington, Batı Virginia, Amerika Birleşik Devletleri

Enlem: 38-21-54N, Boylam: 082-33-18W, yükseklik: 252 m

Güncel hava durumu gözlemi

Rapor saat 14:51 UTC de 42 dakika önce yapıldı.
Rüzgar güneybatıdan 5 kt
Sıcaklık 16°C
Nem 63%
Basınç 1021 hPa
Görüş mesafesi: 16.1 km
Açık gökyüzü

METAR: KHTS 241451Z 22005KT 10SM CLR 16/09 A3015 RMK AO2 SLP208 T01610094 51005

Saat: 11:33 (15:33 UTC)

Tahmin

Rapor saat 15:03 UTC de 30 dakika önce yapıldı.
Ayın 24'si saat 15 UTC'den ayın 25'si saat 12 UTC'ye kadar geçerli Tahmin
Rüzgar güneybatıdan 5 kt
Görüş mesafesi: 10 km
Açık gökyüzü
Ayın 24'si saat 2300 UTC'den
Rüzgar kuzeydan kt
Görüş mesafesi: 10 km
Açık gökyüzü
Ayın 25'si saat 0800 UTC'den
Rüzgar kuzeydan kt
Görüş mesafesi: 10 km
25000 ft yükseklikte parçalı çok bulutlu

TAF: KHTS 241503Z 2415/2512 22005KT P6SM SKC FM242300 00000KT P6SM SKC FM250800 00000KT P6SM BKN250

4.000'den fazla havaalanı için hava durumu gözlemleri ve tahminleri (METAR ve TAF raporları).

Kullanılabilir istasyonlar harita üzerinde sarı ve kırmızı noktalarla gösterilir.

İstasyonun adını görmek için fareyi noktanın üzerinde gezdirin.

Sonrasında hava gözlem ve tahminlerini görmek için tıklayın.

Haritayı değiştirmek için: yaklaştırmak için siyah artı işaretli yeşil düğmeye ve uzaklaştırmak için de eksi işaretli düğmeye hızla tıklayın; bitişik haritalar için yeşil okları kullanın.


METAR-TAF: